Time;durP1;ratioP1;P1;durP2;ratioP2;P2;SDS_P1;SDS_P2;PMS_P1;PMS_P2;Temp;Humidity;BMP_temperature;BMP_pressure;BME280_temperature;BME280_humidity;BME280_pressure;Samples;Min_cycle;Max_cycle;Signal;HPM_P1;HPM_P2
2022/10/25 00:00:35;;;;;;;;;2.00;1.50;;;;;22.18;61.29;100548.32;105643;1281;20016;-52
2022/10/25 00:03:22;;;;;;;;;2.00;2.00;;;;;22.19;61.36;100545.15;105574;1278;22138;-55
2022/10/25 00:05:49;;;;;;;;;1.50;1.50;;;;;22.18;61.28;100539.21;105579;1297;18508;-55
2022/10/25 00:08:16;;;;;;;;;2.00;2.00;;;;;22.17;61.35;100534.96;105609;1275;18461;-53
2022/10/25 00:10:44;;;;;;;;;2.00;2.00;;;;;22.19;61.26;100530.81;105615;1300;19509;-52
2022/10/25 00:13:11;;;;;;;;;2.00;2.00;;;;;22.18;61.25;100532.48;105654;1298;19784;-52
2022/10/25 00:15:38;;;;;;;;;2.00;2.00;;;;;22.19;61.41;100532.29;105496;1282;20698;-55
2022/10/25 00:18:05;;;;;;;;;2.00;2.00;;;;;22.18;61.24;100536.89;105517;1279;19655;-54
2022/10/25 00:20:33;;;;;;;;;2.00;2.00;;;;;22.18;61.23;100534.30;105494;1297;18564;-52
2022/10/25 00:23:00;;;;;;;;;2.00;2.00;;;;;22.19;61.09;100535.20;105560;1282;20300;-54
2022/10/25 00:25:27;;;;;;;;;2.00;2.00;;;;;22.18;61.00;100532.19;105637;1297;20953;-54
2022/10/25 00:27:54;;;;;;;;;2.00;2.00;;;;;22.17;61.10;100536.08;105561;1291;19933;-51
2022/10/25 00:30:22;;;;;;;;;2.00;2.00;;;;;22.18;61.12;100536.17;105524;1291;20241;-51
2022/10/25 00:32:51;;;;;;;;;2.00;2.00;;;;;22.18;61.03;100531.81;105515;1282;22014;-52
2022/10/25 00:35:18;;;;;;;;;2.00;2.00;;;;;22.18;61.20;100530.09;105465;1275;22843;-52
2022/10/25 00:37:46;;;;;;;;;3.00;3.00;;;;;22.18;61.00;100532.22;105473;1281;18679;-53
2022/10/25 00:40:13;;;;;;;;;2.00;2.00;;;;;22.18;61.14;100529.13;105577;1289;19919;-53
2022/10/25 00:42:40;;;;;;;;;2.00;2.00;;;;;22.18;61.19;100530.71;105504;1291;19956;-51
2022/10/25 00:45:07;;;;;;;;;2.00;2.00;;;;;22.19;61.16;100526.28;105513;1297;18992;-55
2022/10/25 00:47:35;;;;;;;;;2.00;2.00;;;;;22.18;61.16;100521.61;105488;1298;19474;-52
2022/10/25 00:50:02;;;;;;;;;2.00;2.00;;;;;22.17;61.18;100517.92;105480;1300;18383;-54
2022/10/25 00:52:29;;;;;;;;;2.00;2.00;;;;;22.18;61.12;100519.63;105552;1298;18711;-56
2022/10/25 00:54:57;;;;;;;;;1.50;1.50;;;;;22.18;61.23;100521.65;105493;1282;19474;-53
2022/10/25 00:57:24;;;;;;;;;3.00;3.00;;;;;22.17;61.13;100520.28;105519;1282;21168;-51
2022/10/25 00:59:51;;;;;;;;;3.00;3.00;;;;;22.18;61.24;100522.37;105563;1297;18847;-52
2022/10/25 01:02:18;;;;;;;;;;;;;;;22.19;61.06;100522.45;105604;1297;19472;-51
2022/10/25 01:04:46;;;;;;;;;2.00;2.00;;;;;22.18;61.04;100521.79;105633;1282;19857;-52
2022/10/25 01:07:13;;;;;;;;;1.50;1.50;;;;;22.18;61.28;100525.27;105629;1297;18532;-52
2022/10/25 01:09:40;;;;;;;;;2.00;2.00;;;;;22.18;61.04;100522.50;105631;1297;19501;-51
2022/10/25 01:12:07;;;;;;;;;2.00;2.00;;;;;22.18;61.05;100522.16;105619;1289;19749;-55
2022/10/25 01:14:35;;;;;;;;;2.00;2.00;;;;;22.18;61.12;100522.52;105641;1291;20151;-53
2022/10/25 01:17:02;;;;;;;;;3.00;2.00;;;;;22.17;61.09;100521.95;105649;1297;22224;-54
2022/10/25 01:19:29;;;;;;;;;2.00;2.00;;;;;22.17;61.22;100516.98;105636;1298;21513;-56
2022/10/25 01:21:57;;;;;;;;;1.00;1.00;;;;;22.16;61.14;100516.15;105695;1285;20269;-51
2022/10/25 01:24:24;;;;;;;;;2.00;2.00;;;;;22.17;61.06;100519.70;105615;1297;19329;-51
2022/10/25 01:26:51;;;;;;;;;2.00;2.00;;;;;22.16;61.00;100519.30;105667;1297;19535;-54
2022/10/25 01:29:18;;;;;;;;;;;;;;;22.16;61.03;100520.98;105598;1297;20181;-53
2022/10/25 01:31:46;;;;;;;;;3.00;3.00;;;;;22.16;61.11;100520.40;105621;1282;19446;-51
2022/10/25 01:34:13;;;;;;;;;1.00;1.00;;;;;22.16;61.14;100521.11;105562;1296;18326;-54
2022/10/25 01:36:40;;;;;;;;;2.00;2.00;;;;;22.16;60.99;100520.35;105612;1282;18727;-54
2022/10/25 01:39:07;;;;;;;;;1.00;1.00;;;;;22.15;61.04;100519.08;105589;1275;19478;-54
2022/10/25 01:41:35;;;;;;;;;1.00;1.00;;;;;22.15;61.09;100517.41;105639;1275;18272;-53
2022/10/25 01:44:02;;;;;;;;;2.00;2.00;;;;;22.15;61.10;100511.02;105618;1297;20160;-52
2022/10/25 01:46:29;;;;;;;;;3.50;3.50;;;;;22.15;61.12;100515.10;105639;1297;19446;-51
2022/10/25 01:48:56;;;;;;;;;5.00;2.00;;;;;22.14;60.91;100514.63;105639;1301;19878;-52
2022/10/25 01:51:24;;;;;;;;;2.00;2.00;;;;;22.15;60.89;100517.08;105637;1282;18580;-54
2022/10/25 01:53:51;;;;;;;;;2.00;2.00;;;;;22.16;60.88;100513.34;105618;1297;19490;-52
2022/10/25 01:56:18;;;;;;;;;2.00;2.00;;;;;22.15;60.91;100514.10;105599;1289;19714;-52
2022/10/25 01:58:45;;;;;;;;;1.50;1.50;;;;;22.17;60.96;100515.78;105594;1289;23532;-55
2022/10/25 02:01:13;;;;;;;;;2.00;2.00;;;;;22.16;60.95;100518.55;105672;1282;19454;-53
2022/10/25 02:03:40;;;;;;;;;1.00;1.00;;;;;22.15;61.08;100516.69;105644;1297;19941;-52
2022/10/25 02:06:07;;;;;;;;;2.00;2.00;;;;;22.15;60.90;100518.88;105634;1291;20241;-55
2022/10/25 02:08:35;;;;;;;;;3.00;2.00;;;;;22.15;60.97;100523.21;105661;1296;21106;-52
2022/10/25 02:11:02;;;;;;;;;2.00;2.00;;;;;22.15;60.97;100519.22;105603;1282;19889;-54
2022/10/25 02:13:29;;;;;;;;;2.00;2.00;;;;;22.13;60.94;100514.33;105642;1297;20780;-54
2022/10/25 02:15:56;;;;;;;;;2.00;2.00;;;;;22.15;60.94;100518.88;105554;1289;22882;-55
2022/10/25 02:18:24;;;;;;;;;1.00;1.00;;;;;22.15;60.90;100517.79;105591;1289;22397;-54
2022/10/25 02:20:51;;;;;;;;;2.50;2.00;;;;;22.16;60.89;100518.96;105572;1298;18585;-56
2022/10/25 02:23:18;;;;;;;;;2.00;2.00;;;;;22.16;60.93;100515.14;105571;1275;19484;-51
2022/10/25 02:25:45;;;;;;;;;2.00;2.00;;;;;22.15;60.95;100512.88;105598;1275;18393;-53
2022/10/25 02:28:13;;;;;;;;;2.00;2.00;;;;;22.15;60.95;100513.64;105619;1291;18870;-55
2022/10/25 02:30:40;;;;;;;;;2.00;2.00;;;;;22.16;60.99;100512.63;105638;1286;19500;-55
2022/10/25 02:33:07;;;;;;;;;2.00;2.00;;;;;22.15;60.67;100511.41;105610;1297;19575;-54
2022/10/25 02:35:34;;;;;;;;;2.00;2.00;;;;;22.15;60.84;100509.98;105607;1297;20294;-54
2022/10/25 02:38:02;;;;;;;;;1.50;1.50;;;;;22.15;60.86;100509.77;105609;1279;19493;-54
2022/10/25 02:40:29;;;;;;;;;2.00;2.00;;;;;22.14;60.83;100512.45;105571;1297;19656;-52
2022/10/25 02:42:56;;;;;;;;;1.00;1.00;;;;;22.13;60.98;100512.15;105578;1297;18728;-51
2022/10/25 02:45:24;;;;;;;;;;;;;;;22.14;60.91;100512.61;105609;1282;20985;-53
2022/10/25 02:47:51;;;;;;;;;1.00;1.00;;;;;22.13;60.73;100511.09;105622;1289;19715;-52
2022/10/25 02:50:18;;;;;;;;;1.00;1.00;;;;;22.13;60.73;100509.13;105609;1297;20279;-52
2022/10/25 02:52:45;;;;;;;;;2.00;2.00;;;;;22.13;60.86;100513.23;105635;1281;21006;-50
2022/10/25 02:55:13;;;;;;;;;1.00;1.00;;;;;22.13;60.84;100511.48;105673;1291;19613;-50
2022/10/25 02:57:40;;;;;;;;;2.00;2.00;;;;;22.12;60.87;100508.49;105625;1290;20295;-53
2022/10/25 03:00:07;;;;;;;;;1.50;1.50;;;;;22.12;60.72;100508.85;105626;1297;19532;-55
2022/10/25 03:02:35;;;;;;;;;2.00;2.00;;;;;22.12;60.98;100508.86;105655;1297;19398;-54
2022/10/25 03:05:02;;;;;;;;;2.00;2.00;;;;;22.12;60.72;100502.27;105509;1296;22212;-56
2022/10/25 03:07:29;;;;;;;;;2.00;2.00;;;;;22.12;60.74;100500.27;105673;1298;20901;-54
2022/10/25 03:09:57;;;;;;;;;2.00;2.00;;;;;22.12;60.87;100500.64;105651;1295;18526;-54
2022/10/25 03:12:24;;;;;;;;;1.00;1.00;;;;;22.12;60.70;100498.23;105662;1275;20416;-53
2022/10/25 03:14:51;;;;;;;;;3.50;3.50;;;;;22.12;60.77;100498.44;105604;1298;19384;-51
2022/10/25 03:17:18;;;;;;;;;2.00;1.00;;;;;22.12;60.75;100496.64;105584;1281;20965;-53
2022/10/25 03:19:46;;;;;;;;;2.00;2.00;;;;;22.13;60.76;100502.02;105493;1281;23063;-50
2022/10/25 03:22:13;;;;;;;;;3.00;3.00;;;;;22.12;60.84;100502.66;105598;1272;19470;-54
2022/10/25 03:24:40;;;;;;;;;2.00;2.00;;;;;22.13;60.46;100507.99;105575;1282;18456;-52
2022/10/25 03:27:07;;;;;;;;;1.00;1.00;;;;;22.14;60.75;100515.77;105596;1282;22648;-53
2022/10/25 03:29:35;;;;;;;;;2.00;2.00;;;;;22.12;60.77;100513.53;105626;1297;19487;-53
2022/10/25 03:32:02;;;;;;;;;2.00;1.00;;;;;22.12;60.90;100512.47;105525;1297;19744;-54
2022/10/25 03:34:29;;;;;;;;;1.50;1.50;;;;;22.12;60.80;100514.11;105679;1290;22310;-51
2022/10/25 03:36:57;;;;;;;;;2.00;2.00;;;;;22.12;60.75;100517.25;105638;1290;21589;-53
2022/10/25 03:39:24;;;;;;;;;2.00;2.00;;;;;22.12;60.67;100513.14;105491;1282;24666;-53
2022/10/25 03:41:52;;;;;;;;;1.00;1.00;;;;;22.12;60.86;100517.42;105557;1291;20045;-54
2022/10/25 03:44:19;;;;;;;;;2.00;2.00;;;;;22.11;60.61;100510.91;105303;1297;19483;-55
2022/10/25 03:46:46;;;;;;;;;1.00;1.00;;;;;22.11;60.98;100513.64;105393;1300;19821;-54
2022/10/25 03:49:13;;;;;;;;;2.00;2.00;;;;;22.11;60.80;100513.09;105528;1300;18701;-53
2022/10/25 03:51:41;;;;;;;;;2.00;2.00;;;;;22.11;60.71;100505.65;105471;1297;22122;-55
2022/10/25 03:54:08;;;;;;;;;1.00;1.00;;;;;22.11;60.86;100506.81;105537;1298;19650;-51
2022/10/25 03:56:35;;;;;;;;;2.00;2.00;;;;;22.11;60.82;100510.35;105527;1282;20515;-53
2022/10/25 03:59:02;;;;;;;;;2.00;2.00;;;;;22.11;60.64;100504.42;105594;1297;21033;-52
2022/10/25 04:01:30;;;;;;;;;2.00;2.00;;;;;22.11;60.64;100500.70;105521;1281;19905;-54
2022/10/25 04:03:57;;;;;;;;;2.00;2.00;;;;;22.10;60.71;100498.83;105499;1291;21811;-52
2022/10/25 04:06:24;;;;;;;;;3.00;3.00;;;;;22.11;60.79;100501.14;105551;1285;20794;-53
2022/10/25 04:08:51;;;;;;;;;2.00;2.00;;;;;22.11;60.80;100500.39;105605;1275;19884;-51
2022/10/25 04:11:19;;;;;;;;;2.00;2.00;;;;;22.11;60.58;100506.94;105475;1275;22190;-51
2022/10/25 04:13:46;;;;;;;;;2.00;2.00;;;;;22.11;60.56;100503.13;105603;1275;20931;-53
2022/10/25 04:16:16;;;;;;;;;2.00;2.00;;;;;22.10;60.66;100507.81;105497;1282;18233;-50
2022/10/25 04:18:43;;;;;;;;;2.00;2.00;;;;;22.11;60.63;100506.61;105565;1275;23392;-53
2022/10/25 04:21:10;;;;;;;;;1.00;1.00;;;;;22.11;60.62;100498.24;105572;1289;22525;-53
2022/10/25 04:23:37;;;;;;;;;1.00;1.00;;;;;22.11;60.65;100498.80;105477;1282;22399;-53
2022/10/25 04:26:05;;;;;;;;;1.00;1.00;;;;;22.10;60.61;100497.56;105511;1292;21518;-52
2022/10/25 04:28:32;;;;;;;;;2.00;2.00;;;;;22.11;60.60;100502.07;105539;1303;19522;-53
2022/10/25 04:30:59;;;;;;;;;;;;;;;22.10;60.76;100503.61;105545;1281;18370;-52
2022/10/25 04:33:26;;;;;;;;;2.00;2.00;;;;;22.10;60.66;100503.45;105578;1275;19872;-55
2022/10/25 04:35:55;;;;;;;;;1.00;1.00;;;;;22.10;60.67;100504.86;105559;1281;19301;-53
2022/10/25 04:38:22;;;;;;;;;2.00;2.00;;;;;22.10;60.57;100508.57;105581;1275;21204;-53
2022/10/25 04:40:49;;;;;;;;;2.00;1.00;;;;;22.10;60.51;100511.76;105591;1305;22174;-55
2022/10/25 04:43:16;;;;;;;;;1.50;1.50;;;;;22.08;60.76;100511.48;105604;1297;19493;-51
2022/10/25 04:45:44;;;;;;;;;2.00;2.00;;;;;22.09;60.47;100515.89;105556;1281;21872;-50
2022/10/25 04:48:11;;;;;;;;;2.00;1.00;;;;;22.10;60.67;100511.26;105594;1275;18895;-54
2022/10/25 04:50:38;;;;;;;;;2.00;2.00;;;;;22.07;60.61;100506.88;105553;1288;22094;-51
2022/10/25 04:53:05;;;;;;;;;;;;;;;22.09;60.81;100508.94;105527;1284;19925;-51
2022/10/25 04:55:33;;;;;;;;;2.00;2.00;;;;;22.10;60.57;100513.78;105584;1282;22758;-53
2022/10/25 04:58:00;;;;;;;;;3.00;2.00;;;;;22.11;60.64;100514.59;105535;1300;19625;-53
2022/10/25 05:00:27;;;;;;;;;2.00;2.00;;;;;22.11;60.38;100514.66;105617;1289;18504;-51
2022/10/25 05:02:54;;;;;;;;;3.00;2.00;;;;;22.11;60.36;100510.09;105608;1291;20096;-53
2022/10/25 05:05:22;;;;;;;;;2.00;2.00;;;;;22.11;60.58;100510.60;105601;1283;20795;-53
2022/10/25 05:07:49;;;;;;;;;2.00;2.00;;;;;22.11;60.42;100510.57;105538;1282;19612;-53
2022/10/25 05:10:16;;;;;;;;;;;;;;;22.11;60.58;100513.09;105589;1298;22723;-50
2022/10/25 05:12:43;;;;;;;;;2.50;2.50;;;;;22.12;60.45;100513.98;105570;1283;19618;-54
2022/10/25 05:15:11;;;;;;;;;2.00;2.00;;;;;22.11;60.27;100513.11;105550;1279;19177;-51
2022/10/25 05:17:38;;;;;;;;;2.00;2.00;;;;;22.12;60.40;100515.08;105482;1282;20202;-52
2022/10/25 05:20:06;;;;;;;;;;;;;;;22.11;60.58;100520.98;105515;1281;20880;-52
2022/10/25 05:22:33;;;;;;;;;3.00;2.00;;;;;22.13;60.47;100523.30;105643;1279;23283;-52
2022/10/25 05:25:00;;;;;;;;;3.00;2.00;;;;;22.18;60.89;100523.07;105630;1279;20414;-56
2022/10/25 05:27:28;;;;;;;;;26.00;25.00;;;;;22.21;61.39;100521.97;105644;1289;23240;-53
2022/10/25 05:29:55;;;;;;;;;;;;;;;22.24;62.03;100522.06;105601;1282;19918;-54
2022/10/25 05:32:22;;;;;;;;;71.00;56.00;;;;;22.25;62.34;100521.33;105604;1282;18321;-52
2022/10/25 05:34:49;;;;;;;;;74.00;59.00;;;;;22.26;62.30;100529.52;105620;1296;21049;-56
2022/10/25 05:37:16;;;;;;;;;46.00;42.00;;;;;22.26;62.42;100527.08;105662;1294;20253;-55
2022/10/25 05:39:44;;;;;;;;;46.50;40.00;;;;;22.27;61.99;100522.97;105444;1283;18969;-52
2022/10/25 05:42:11;;;;;;;;;45.00;42.00;;;;;22.26;62.09;100526.28;105489;1282;19627;-56
2022/10/25 05:44:38;;;;;;;;;;;;;;;22.26;62.13;100532.20;105552;1275;18691;-53
2022/10/25 05:47:05;;;;;;;;;36.00;34.00;;;;;22.26;62.36;100530.82;105522;1282;18394;-51
2022/10/25 05:49:38;;;;;;;;;31.50;30.50;;;;;22.26;62.39;100536.98;105603;1282;20876;-53
2022/10/25 05:52:05;;;;;;;;;30.50;26.00;;;;;22.29;62.40;100546.63;105572;1298;22038;-53
2022/10/25 05:54:32;;;;;;;;;23.50;22.00;;;;;22.29;62.46;100551.52;105617;1282;18640;-54
2022/10/25 05:57:00;;;;;;;;;24.50;23.00;;;;;22.29;62.21;100560.83;105590;1289;22231;-50
2022/10/25 05:59:27;;;;;;;;;19.00;18.00;;;;;22.29;62.28;100562.30;105527;1275;20218;-50
2022/10/25 06:01:54;;;;;;;;;22.00;18.00;;;;;22.29;62.52;100558.23;105451;1297;20044;-50
2022/10/25 06:04:21;;;;;;;;;18.00;15.00;;;;;22.31;62.51;100555.08;105585;1297;21128;-51
2022/10/25 06:06:50;;;;;;;;;16.00;16.00;;;;;22.34;62.79;100559.94;105533;1283;20213;-54
2022/10/25 06:09:18;;;;;;;;;19.00;18.00;;;;;22.37;62.76;100564.35;105409;1275;21494;-49
2022/10/25 06:11:45;;;;;;;;;;;;;;;22.35;62.61;100563.89;105494;1275;20559;-50
2022/10/25 06:14:13;;;;;;;;;15.50;15.00;;;;;22.35;62.69;100570.17;105541;1282;18686;-49
2022/10/25 06:16:40;;;;;;;;;15.00;14.00;;;;;22.35;62.94;100568.52;105491;1282;18916;-50
2022/10/25 06:19:07;;;;;;;;;15.00;15.00;;;;;22.34;62.71;100573.96;105527;1297;19435;-50
2022/10/25 06:21:34;;;;;;;;;15.00;14.00;;;;;22.30;62.72;100570.31;105524;1279;18504;-50
2022/10/25 06:24:03;;;;;;;;;16.00;16.00;;;;;22.27;62.53;100572.95;105497;1281;18833;-51
2022/10/25 06:26:30;;;;;;;;;14.00;14.00;;;;;22.22;62.48;100567.17;105518;1283;19507;-52
2022/10/25 06:28:57;;;;;;;;;14.50;13.00;;;;;22.20;62.15;100572.41;105493;1275;20272;-52
2022/10/25 06:31:25;;;;;;;;;17.00;14.50;;;;;22.23;62.01;100579.00;105545;1300;19783;-52
2022/10/25 06:33:52;;;;;;;;;15.50;13.50;;;;;22.21;62.11;100580.19;105478;1297;20769;-50
2022/10/25 06:36:19;;;;;;;;;14.50;14.00;;;;;22.21;61.77;100585.39;105461;1297;20297;-50
2022/10/25 06:38:46;;;;;;;;;13.00;13.00;;;;;22.21;61.56;100589.30;105499;1281;20090;-50
2022/10/25 06:41:14;;;;;;;;;14.00;14.00;;;;;22.20;61.50;100595.72;105482;1275;22350;-50
2022/10/25 06:43:41;;;;;;;;;;;;;;;22.21;61.43;100595.89;105476;1301;22637;-53
2022/10/25 06:46:08;;;;;;;;;14.00;10.50;;;;;22.18;61.24;100597.84;105515;1281;19468;-52
2022/10/25 06:48:35;;;;;;;;;15.00;14.00;;;;;22.18;61.31;100598.60;105468;1275;22762;-51
2022/10/25 06:51:03;;;;;;;;;11.00;10.50;;;;;22.15;61.31;100598.55;105458;1282;24243;-49
2022/10/25 06:53:30;;;;;;;;;12.00;11.00;;;;;22.15;61.09;100594.26;105511;1275;20446;-53
2022/10/25 06:55:57;;;;;;;;;10.00;10.00;;;;;22.17;60.92;100599.24;105528;1282;20823;-49
2022/10/25 06:58:24;;;;;;;;;11.00;9.00;;;;;22.17;60.86;100597.27;105512;1282;20232;-51
2022/10/25 07:00:52;;;;;;;;;10.00;10.00;;;;;22.16;60.69;100596.27;105511;1275;18848;-50
2022/10/25 07:03:21;;;;;;;;;;;;;;;22.18;60.75;100596.92;105539;1297;19509;-51
2022/10/25 07:05:48;;;;;;;;;7.33;7.33;;;;;22.19;60.81;100601.08;105581;1282;22443;-52
2022/10/25 07:08:16;;;;;;;;;10.00;10.00;;;;;22.19;60.77;100603.57;105552;1281;22932;-51
2022/10/25 07:10:43;;;;;;;;;7.00;7.00;;;;;22.20;60.74;100605.80;105525;1289;20915;-53
2022/10/25 07:13:10;;;;;;;;;;;;;;;22.20;60.92;100605.96;105528;1283;20329;-50
2022/10/25 07:15:37;;;;;;;;;9.00;9.00;;;;;22.22;60.76;100606.23;105540;1283;19783;-49
2022/10/25 07:18:05;;;;;;;;;7.50;6.00;;;;;22.25;60.64;100604.41;105517;1282;21105;-49
2022/10/25 07:20:32;;;;;;;;;6.00;6.00;;;;;22.22;60.98;100603.14;105513;1275;19871;-49
2022/10/25 07:22:59;;;;;;;;;6.50;6.00;;;;;22.26;60.93;100601.42;105479;1282;18746;-52
2022/10/25 07:25:27;;;;;;;;;6.00;6.00;;;;;22.26;60.65;100604.48;105505;1282;19683;-51
2022/10/25 07:27:54;;;;;;;;;6.00;5.50;;;;;22.24;60.82;100607.09;105426;1275;18422;-51
2022/10/25 07:30:21;;;;;;;;;5.50;5.00;;;;;22.25;60.78;100610.14;105516;1275;19113;-50
2022/10/25 07:32:48;;;;;;;;;5.00;5.00;;;;;22.24;60.81;100610.52;105412;1282;19199;-50
2022/10/25 07:35:16;;;;;;;;;6.00;6.00;;;;;22.24;60.82;100609.33;105562;1289;18351;-50
2022/10/25 07:37:43;;;;;;;;;7.50;7.50;;;;;22.23;60.97;100609.61;105438;1275;18688;-52
2022/10/25 07:40:10;;;;;;;;;6.00;6.00;;;;;22.22;60.95;100613.67;105518;1289;21059;-50
2022/10/25 07:42:37;;;;;;;;;6.00;6.00;;;;;22.23;60.83;100616.84;105400;1275;23599;-56
2022/10/25 07:45:05;;;;;;;;;5.00;5.00;;;;;22.24;61.06;100611.88;105506;1275;21498;-50
2022/10/25 07:47:33;;;;;;;;;13.50;13.00;;;;;22.24;60.96;100614.25;105552;1297;20966;-52
2022/10/25 07:50:00;;;;;;;;;11.00;10.00;;;;;22.21;60.89;100615.09;105577;1297;19627;-50
2022/10/25 07:52:27;;;;;;;;;9.00;9.00;;;;;22.18;60.55;100608.13;105619;1290;18929;-50
2022/10/25 07:54:54;;;;;;;;;9.00;7.00;;;;;22.16;60.46;100608.77;105520;1297;19301;-53
2022/10/25 07:57:22;;;;;;;;;7.00;7.00;;;;;22.19;60.43;100613.09;105526;1282;18517;-53
2022/10/25 07:59:49;;;;;;;;;10.00;9.00;;;;;22.21;60.49;100612.53;105509;1282;123458;-51
2022/10/25 08:02:16;;;;;;;;;7.00;6.50;;;;;22.23;60.68;100612.71;105570;1298;23904;-52
2022/10/25 08:04:44;;;;;;;;;7.00;6.00;;;;;22.25;60.91;100611.41;105632;1297;18464;-53
2022/10/25 08:07:11;;;;;;;;;9.00;9.00;;;;;22.27;61.12;100619.08;105589;1297;20765;-51
2022/10/25 08:09:38;;;;;;;;;10.00;9.00;;;;;22.30;61.24;100624.23;105573;1297;19513;-50
2022/10/25 08:12:05;;;;;;;;;;;;;;;22.31;61.18;100624.60;105613;1275;19947;-51
2022/10/25 08:14:32;;;;;;;;;6.00;6.00;;;;;22.32;61.13;100622.71;105554;1291;19860;-53
2022/10/25 08:17:00;;;;;;;;;8.00;6.50;;;;;22.32;61.33;100619.81;105522;1297;20109;-53
2022/10/25 08:19:27;;;;;;;;;6.00;6.00;;;;;22.32;61.26;100625.99;105413;1282;19829;-51
2022/10/25 08:21:54;;;;;;;;;8.50;8.50;;;;;22.31;61.32;100623.38;105537;1297;18850;-50
2022/10/25 08:24:22;;;;;;;;;5.50;5.50;;;;;22.31;61.24;100614.39;105430;1297;20928;-51
2022/10/25 08:26:49;;;;;;;;;5.50;5.50;;;;;22.36;61.15;100621.39;105520;1282;19865;-51
2022/10/25 08:29:16;;;;;;;;;7.00;6.00;;;;;22.42;61.13;100623.56;105544;1297;18494;-51
2022/10/25 08:31:43;;;;;;;;;7.00;7.00;;;;;22.42;60.91;100626.34;105618;1282;21958;-54
2022/10/25 08:34:10;;;;;;;;;10.00;9.00;;;;;22.44;60.68;100628.08;105550;1275;18897;-50
2022/10/25 08:36:38;;;;;;;;;;;;;;;22.47;60.25;100633.29;105560;1281;22877;-51
2022/10/25 08:39:05;;;;;;;;;11.50;9.50;;;;;22.53;59.97;100630.17;105594;1275;20788;-51
2022/10/25 08:41:32;;;;;;;;;10.00;9.50;;;;;22.56;59.45;100633.10;105556;1275;18604;-49
2022/10/25 08:44:00;;;;;;;;;7.00;7.00;;;;;22.47;59.35;100632.58;105510;1275;21682;-51
2022/10/25 08:46:27;;;;;;;;;12.00;12.00;;;;;22.46;59.33;100629.08;105539;1282;21771;-53
2022/10/25 08:48:54;;;;;;;;;11.00;9.00;;;;;22.45;59.22;100634.73;105501;1282;19806;-53
2022/10/25 08:51:21;;;;;;;;;13.00;13.00;;;;;22.48;59.18;100640.05;105524;1282;22278;-52
2022/10/25 08:53:49;;;;;;;;;11.00;11.00;;;;;22.51;58.90;100634.46;105594;1283;20782;-52
2022/10/25 08:56:16;;;;;;;;;13.00;11.00;;;;;22.50;58.63;100637.70;105444;1292;20216;-52
2022/10/25 08:58:45;;;;;;;;;13.00;13.00;;;;;22.40;58.57;100639.66;105545;1275;20335;-55
2022/10/25 09:01:12;;;;;;;;;9.00;8.00;;;;;22.35;58.78;100647.41;105487;1275;20800;-54
2022/10/25 09:03:39;;;;;;;;;13.50;11.00;;;;;22.28;58.91;100645.68;105428;1282;18652;-56
2022/10/25 09:06:06;;;;;;;;;10.00;10.00;;;;;22.27;59.04;100638.98;105501;1282;20245;-50
2022/10/25 09:08:34;;;;;;;;;13.00;13.00;;;;;22.25;58.83;100636.23;105562;1282;19675;-52
2022/10/25 09:11:01;;;;;;;;;10.00;10.00;;;;;22.24;59.00;100646.80;105575;1275;20323;-52
2022/10/25 09:13:28;;;;;;;;;13.50;11.00;;;;;22.21;58.96;100649.71;105643;1297;20265;-51
2022/10/25 09:15:56;;;;;;;;;15.00;11.00;;;;;22.17;58.90;100649.27;105592;1290;20753;-50
2022/10/25 09:18:23;;;;;;;;;;;;;;;22.17;58.78;100654.25;105541;1275;20010;-54
2022/10/25 09:20:50;;;;;;;;;11.00;10.00;;;;;22.15;58.85;100658.77;105577;1275;19899;-51
2022/10/25 09:23:17;;;;;;;;;;;;;;;22.15;58.74;100658.64;105570;1295;22018;-53
2022/10/25 09:25:45;;;;;;;;;13.00;10.00;;;;;22.13;58.74;100660.09;105507;1303;18856;-52
2022/10/25 09:28:12;;;;;;;;;13.00;10.00;;;;;22.11;58.70;100660.35;105645;1297;18568;-51
2022/10/25 09:30:39;;;;;;;;;13.00;11.00;;;;;22.11;58.77;100661.64;105627;1289;19621;-55
2022/10/25 09:33:06;;;;;;;;;10.00;9.00;;;;;22.11;58.70;100665.44;105512;1274;20210;-50
2022/10/25 09:35:34;;;;;;;;;13.00;10.00;;;;;22.10;58.82;100671.58;105486;1291;20234;-51
2022/10/25 09:38:01;;;;;;;;;11.00;9.00;;;;;22.09;58.70;100674.42;105443;1289;21042;-51
2022/10/25 09:40:28;;;;;;;;;11.00;11.00;;;;;22.07;58.46;100676.10;105514;1275;20272;-53
2022/10/25 09:42:55;;;;;;;;;10.00;10.00;;;;;22.05;58.63;100675.80;105498;1297;18895;-51
2022/10/25 09:45:23;;;;;;;;;15.00;13.00;;;;;22.04;58.45;100674.78;105548;1284;20824;-51
2022/10/25 09:47:50;;;;;;;;;10.50;10.00;;;;;22.05;58.49;100672.23;105545;1289;18797;-53
2022/10/25 09:50:17;;;;;;;;;10.50;10.50;;;;;22.03;58.55;100673.20;105458;1291;20104;-51
2022/10/25 09:52:44;;;;;;;;;;;;;;;22.02;58.41;100681.31;105467;1289;19561;-53
2022/10/25 09:55:12;;;;;;;;;10.50;10.50;;;;;21.99;58.46;100675.08;105538;1297;20277;-54
2022/10/25 09:57:40;;;;;;;;;10.50;10.50;;;;;22.00;58.43;100676.81;105503;1291;22672;-51
2022/10/25 10:00:07;;;;;;;;;13.00;11.00;;;;;21.98;58.26;100673.90;105563;1282;22568;-50
2022/10/25 10:02:35;;;;;;;;;13.50;11.00;;;;;21.95;58.48;100673.06;105503;1297;18896;-53
2022/10/25 10:05:02;;;;;;;;;13.00;11.00;;;;;21.94;58.35;100672.75;105547;1298;20343;-52
2022/10/25 10:07:29;;;;;;;;;;;;;;;21.93;58.44;100672.55;105581;1297;21124;-53
2022/10/25 10:09:57;;;;;;;;;15.00;14.00;;;;;21.93;58.42;100670.71;105553;1275;19085;-50
2022/10/25 10:12:24;;;;;;;;;17.00;14.00;;;;;21.96;58.37;100675.33;105565;1281;21375;-50
2022/10/25 10:14:51;;;;;;;;;17.00;16.00;;;;;21.95;58.47;100682.48;105472;1283;22688;-52
2022/10/25 10:17:18;;;;;;;;;17.00;17.00;;;;;21.94;58.59;100679.20;105567;1289;22220;-52
2022/10/25 10:19:46;;;;;;;;;14.00;14.00;;;;;21.93;58.57;100674.91;105636;1289;20399;-53
2022/10/25 10:22:13;;;;;;;;;16.00;14.00;;;;;21.92;58.66;100672.12;105611;1297;21981;-52
2022/10/25 10:24:40;;;;;;;;;18.00;17.00;;;;;21.91;58.69;100672.44;105665;1297;18935;-53
2022/10/25 10:27:07;;;;;;;;;14.00;14.00;;;;;21.91;58.68;100669.51;105589;1297;18773;-54
2022/10/25 10:29:35;;;;;;;;;14.00;14.00;;;;;21.91;58.70;100667.29;105589;1297;20985;-52
2022/10/25 10:32:04;;;;;;;;;;;;;;;21.93;58.79;100669.08;105599;1297;18702;-52
2022/10/25 10:34:31;;;;;;;;;18.00;15.00;;;;;21.93;58.86;100664.75;105638;1281;22564;-51
2022/10/25 10:36:58;;;;;;;;;;;;;;;21.86;58.93;100667.25;105585;1275;20970;-54
2022/10/25 10:39:25;;;;;;;;;17.00;13.50;;;;;21.83;59.15;100668.84;105604;1295;18713;-51
2022/10/25 10:41:54;;;;;;;;;15.00;15.00;;;;;21.87;59.32;100667.81;105593;1281;18780;-51
2022/10/25 10:44:22;;;;;;;;;16.00;14.00;;;;;21.90;59.12;100669.24;105562;1297;19976;-52
2022/10/25 10:46:49;;;;;;;;;13.00;13.00;;;;;21.91;59.25;100674.04;105584;1281;18904;-54
2022/10/25 10:49:16;;;;;;;;;11.00;11.00;;;;;21.92;59.20;100674.88;105574;1279;22750;-51
2022/10/25 10:51:43;;;;;;;;;16.00;15.00;;;;;21.91;59.22;100669.38;105560;1279;21843;-50
2022/10/25 10:54:11;;;;;;;;;16.00;16.00;;;;;21.93;59.40;100671.87;105506;1273;21674;-50
2022/10/25 10:56:38;;;;;;;;;26.00;22.00;;;;;21.94;59.49;100668.87;105470;1282;18793;-52
2022/10/25 10:59:05;;;;;;;;;21.00;20.00;;;;;21.91;59.60;100670.94;105561;1297;23122;-50
2022/10/25 11:01:33;;;;;;;;;15.00;15.00;;;;;21.91;59.78;100673.71;105633;1297;22631;-50
2022/10/25 11:04:00;;;;;;;;;19.00;19.00;;;;;21.91;59.69;100678.48;105626;1283;18836;-52
2022/10/25 11:06:27;;;;;;;;;19.00;15.00;;;;;21.86;59.84;100677.38;105605;1297;19292;-52
2022/10/25 11:08:54;;;;;;;;;20.00;16.00;;;;;21.88;59.93;100679.13;105491;1275;18488;-55
2022/10/25 11:11:22;;;;;;;;;15.00;15.00;;;;;21.89;59.84;100683.95;105576;1300;21884;-52
2022/10/25 11:13:50;;;;;;;;;17.00;15.00;;;;;21.91;59.96;100682.23;105573;1279;19508;-53
2022/10/25 11:16:17;;;;;;;;;14.00;12.50;;;;;21.91;60.05;100682.23;105582;1271;20253;-52